Pagrindinis puslapis
METAR-TAF:

METAR-TAF

Oro uostai :

Leuvardenas, Nyderlandai

platuma: 53-13N, ilguma: 005-46E, Aukštis: 1 m

Dabartinis oras

Ataskaita buvo paskelbta 32 minutes, ne 10:55 UTC
Vėjas 15 kt iš Šiaurės Rytų, svyruoja nuo Šiaurės ir Pietryčių
Temperatūra 19°C
Drėgmė 49%
Slėgis 1025 hPa
Matomumas 10 km arba daugiau
Mažai debesys ne aukštis 4800 ft
Su prošvaistėmis ne aukštis 34000 ft

METAR: EHLW 311055Z AUTO 05015KT 350V130 9999 FEW048 BKN340 19/08 Q1025 BLU

Laikas: 13:27 (11:27 UTC)

Prognozė

Ataskaita buvo paskelbta 2 valandos ir 53 minutes, ne 08:34 UTC
Prognozė galioja nuo 31 metu 09 UTC su 31 metu 21 UTC
Vėjas 12 kt iš Rytų
Matomumas 10 km arba daugiau
nėra debesų žemiau 1500 m ir nėra kamuolinių lietaus debesų
Tapsmas
nuo 31 metu 09 UTC su 31 metu 12 UTC
Vėjas 15 kt iš Šiaurės Rytų su gūsio iki 25 kt
Tapsmas
nuo 31 metu 16 UTC su 31 metu 19 UTC
Vėjas 8 kt iš Rytų/Šiaurės Rytų

TAF: EHLW 310834Z 3109/3121 09012KT CAVOK BECMG 3109/3112 05015G25KT BECMG 3116/3119 06008KT

Orai ataskaitas ir orų prognozės (METAR, TAF).

turimą stotys yra geltonos ir raudonos taškus žemėlapyje.

Perkelti pele per norėdami pamatyti stoties vardą.

Tada spustelėkite, norėdami matyti oro stebėjimo ir prognozės.

Norėdami pakeisti žemėlapį: spustelėkite ant žalios mygtukų su juodo kryžiaus žemyn,; žalią mygtuką su brūkšneliu, jei norite nutolinti; arba žalių rodyklių gretimoms žemėlapius.


METAR-TAF: